sensor_id;sensor_type;location;lat;lon;timestamp;pressure;altitude;pressure_sealevel;temperature;humidity
34921;BME280;21128;50.016;20.002;2023-01-29T00:02:17;99724.59;;;-1.18;100.00
34921;BME280;21128;50.016;20.002;2023-01-29T00:04:44;99728.07;;;-1.19;100.00
34921;BME280;21128;50.016;20.002;2023-01-29T00:07:14;99726.39;;;-1.20;100.00
34921;BME280;21128;50.016;20.002;2023-01-29T00:09:41;99720.39;;;-1.21;100.00
34921;BME280;21128;50.016;20.002;2023-01-29T00:12:08;99725.55;;;-1.21;100.00
34921;BME280;21128;50.016;20.002;2023-01-29T00:14:41;99724.76;;;-1.23;100.00
34921;BME280;21128;50.016;20.002;2023-01-29T00:17:08;99730.75;;;-1.22;100.00
34921;BME280;21128;50.016;20.002;2023-01-29T00:19:35;99735.02;;;-1.21;100.00
34921;BME280;21128;50.016;20.002;2023-01-29T00:22:05;99735.86;;;-1.21;100.00
34921;BME280;21128;50.016;20.002;2023-01-29T00:24:35;99741.86;;;-1.20;100.00
34921;BME280;21128;50.016;20.002;2023-01-29T00:27:05;99739.23;;;-1.19;100.00
34921;BME280;21128;50.016;20.002;2023-01-29T00:29:32;99740.08;;;-1.18;100.00
34921;BME280;21128;50.016;20.002;2023-01-29T00:31:59;99738.37;;;-1.18;100.00
34921;BME280;21128;50.016;20.002;2023-01-29T00:34:29;99736.58;;;-1.16;100.00
34921;BME280;21128;50.016;20.002;2023-01-29T00:36:56;99752.00;;;-1.14;100.00
34921;BME280;21128;50.016;20.002;2023-01-29T00:39:30;99732.20;;;-1.14;100.00
34921;BME280;21128;50.016;20.002;2023-01-29T00:42:05;99729.63;;;-1.14;100.00
34921;BME280;21128;50.016;20.002;2023-01-29T00:44:51;99738.16;;;-1.11;100.00
34921;BME280;21128;50.016;20.002;2023-01-29T00:47:24;99746.73;;;-1.11;100.00
34921;BME280;21128;50.016;20.002;2023-01-29T00:50:01;99746.73;;;-1.11;100.00
34921;BME280;21128;50.016;20.002;2023-01-29T00:52:29;99748.42;;;-1.10;100.00
34921;BME280;21128;50.016;20.002;2023-01-29T00:55:00;99750.14;;;-1.09;100.00
34921;BME280;21128;50.016;20.002;2023-01-29T00:57:31;99750.21;;;-1.12;100.00
34921;BME280;21128;50.016;20.002;2023-01-29T01:00:08;99743.27;;;-1.10;100.00
34921;BME280;21128;50.016;20.002;2023-01-29T01:02:35;99739.89;;;-1.12;100.00
34921;BME280;21128;50.016;20.002;2023-01-29T01:05:21;99741.63;;;-1.12;100.00
34921;BME280;21128;50.016;20.002;2023-01-29T01:07:52;99741.63;;;-1.12;100.00
34921;BME280;21128;50.016;20.002;2023-01-29T01:10:31;99752.79;;;-1.12;100.00
34921;BME280;21128;50.016;20.002;2023-01-29T01:13:02;99749.31;;;-1.11;100.00
34921;BME280;21128;50.016;20.002;2023-01-29T01:15:33;99757.05;;;-1.11;100.00
34921;BME280;21128;50.016;20.002;2023-01-29T01:18:02;99754.47;;;-1.11;100.00
34921;BME280;21128;50.016;20.002;2023-01-29T01:20:32;99744.16;;;-1.11;100.00
34921;BME280;21128;50.016;20.002;2023-01-29T01:23:02;99745.89;;;-1.11;100.00
34921;BME280;21128;50.016;20.002;2023-01-29T01:25:32;99748.42;;;-1.10;100.00
34921;BME280;21128;50.016;20.002;2023-01-29T01:28:00;99747.63;;;-1.12;100.00
34921;BME280;21128;50.016;20.002;2023-01-29T01:30:27;99753.62;;;-1.11;100.00
34921;BME280;21128;50.016;20.002;2023-01-29T01:32:54;99761.42;;;-1.13;100.00
34921;BME280;21128;50.016;20.002;2023-01-29T01:35:21;99757.16;;;-1.14;100.00
34921;BME280;21128;50.016;20.002;2023-01-29T01:37:48;99761.52;;;-1.16;100.00
34921;BME280;21128;50.016;20.002;2023-01-29T01:40:18;99758.17;;;-1.20;100.00
34921;BME280;21128;50.016;20.002;2023-01-29T01:42:55;99755.66;;;-1.21;100.00
34921;BME280;21128;50.016;20.002;2023-01-29T01:45:29;99763.44;;;-1.23;100.00
34921;BME280;21128;50.016;20.002;2023-01-29T01:48:01;99764.38;;;-1.25;100.00
34921;BME280;21128;50.016;20.002;2023-01-29T01:53:37;99755.92;;;-1.30;100.00
34921;BME280;21128;50.016;20.002;2023-01-29T01:56:14;99766.34;;;-1.33;100.00
34921;BME280;21128;50.016;20.002;2023-01-29T01:58:49;99756.03;;;-1.33;100.00
34921;BME280;21128;50.016;20.002;2023-01-29T02:01:18;99769.77;;;-1.33;100.00
34921;BME280;21128;50.016;20.002;2023-01-29T02:06:44;99754.36;;;-1.36;100.00
34921;BME280;21128;50.016;20.002;2023-01-29T02:09:38;99742.31;;;-1.35;100.00
34921;BME280;21128;50.016;20.002;2023-01-29T02:12:10;99738.05;;;-1.36;100.00
34921;BME280;21128;50.016;20.002;2023-01-29T02:14:39;99732.89;;;-1.36;100.00
34921;BME280;21128;50.016;20.002;2023-01-29T02:17:09;99721.80;;;-1.38;100.00
34921;BME280;21128;50.016;20.002;2023-01-29T02:19:52;99731.36;;;-1.42;100.00
34921;BME280;21128;50.016;20.002;2023-01-29T02:22:50;99725.37;;;-1.43;100.00
34921;BME280;21128;50.016;20.002;2023-01-29T02:25:51;99717.66;;;-1.44;100.00
34921;BME280;21128;50.016;20.002;2023-01-29T02:28:42;99716.02;;;-1.47;100.00
34921;BME280;21128;50.016;20.002;2023-01-29T02:34:16;99713.55;;;-1.50;100.00
34921;BME280;21128;50.016;20.002;2023-01-29T02:40:06;99710.14;;;-1.52;100.00
34921;BME280;21128;50.016;20.002;2023-01-29T02:42:43;99722.19;;;-1.52;100.00
34921;BME280;21128;50.016;20.002;2023-01-29T02:45:18;99711.02;;;-1.51;100.00
34921;BME280;21128;50.016;20.002;2023-01-29T02:47:59;99711.86;;;-1.51;100.00
34921;BME280;21128;50.016;20.002;2023-01-29T02:50:40;99712.65;;;-1.49;100.00
34921;BME280;21128;50.016;20.002;2023-01-29T02:56:09;99709.28;;;-1.51;100.00
34921;BME280;21128;50.016;20.002;2023-01-29T02:59:03;99716.24;;;-1.54;100.00
34921;BME280;21128;50.016;20.002;2023-01-29T03:01:37;99710.34;;;-1.58;100.00
34921;BME280;21128;50.016;20.002;2023-01-29T03:04:15;99706.95;;;-1.60;100.00
34921;BME280;21128;50.016;20.002;2023-01-29T03:06:57;99717.30;;;-1.61;100.00
34921;BME280;21128;50.016;20.002;2023-01-29T03:09:35;99724.30;;;-1.65;100.00
34921;BME280;21128;50.016;20.002;2023-01-29T03:12:22;99720.03;;;-1.66;100.00
34921;BME280;21128;50.016;20.002;2023-01-29T03:15:15;99728.66;;;-1.67;100.00
34921;BME280;21128;50.016;20.002;2023-01-29T03:17:50;99726.98;;;-1.70;100.00
34921;BME280;21128;50.016;20.002;2023-01-29T03:20:22;99731.30;;;-1.70;100.00
34921;BME280;21128;50.016;20.002;2023-01-29T03:22:57;99741.61;;;-1.70;100.00
34921;BME280;21128;50.016;20.002;2023-01-29T03:25:26;99741.66;;;-1.72;100.00
34921;BME280;21128;50.016;20.002;2023-01-29T03:28:15;99745.97;;;-1.72;100.00
34921;BME280;21128;50.016;20.002;2023-01-29T03:31:05;99741.70;;;-1.73;100.00
34921;BME280;21128;50.016;20.002;2023-01-29T03:34:15;99736.65;;;-1.76;100.00
34921;BME280;21128;50.016;20.002;2023-01-29T03:39:23;99744.50;;;-1.81;100.00
34921;BME280;21128;50.016;20.002;2023-01-29T03:47:48;99758.31;;;-1.83;100.00
34921;BME280;21128;50.016;20.002;2023-01-29T03:53:26;99746.39;;;-1.87;100.00
34921;BME280;21128;50.016;20.002;2023-01-29T03:58:58;99725.09;;;-1.94;100.00
34921;BME280;21128;50.016;20.002;2023-01-29T04:01:32;99725.15;;;-1.95;100.00
34921;BME280;21128;50.016;20.002;2023-01-29T04:04:13;99721.68;;;-1.94;100.00
34921;BME280;21128;50.016;20.002;2023-01-29T04:06:43;99720.89;;;-1.96;100.00
34921;BME280;21128;50.016;20.002;2023-01-29T04:12:10;99712.36;;;-1.99;100.00
34921;BME280;21128;50.016;20.002;2023-01-29T04:14:39;99725.25;;;-1.99;100.00
34921;BME280;21128;50.016;20.002;2023-01-29T04:17:11;99726.93;;;-1.97;100.00
34921;BME280;21128;50.016;20.002;2023-01-29T04:19:40;99720.05;;;-1.97;100.00
34921;BME280;21128;50.016;20.002;2023-01-29T04:22:21;99711.47;;;-1.97;100.00
34921;BME280;21128;50.016;20.002;2023-01-29T04:24:51;99708.01;;;-1.96;100.00
34921;BME280;21128;50.016;20.002;2023-01-29T04:38:46;99710.63;;;-1.98;100.00
34921;BME280;21128;50.016;20.002;2023-01-29T04:49:05;99676.26;;;-1.97;100.00
34921;BME280;21128;50.016;20.002;2023-01-29T04:54:40;99677.94;;;-1.96;100.00
34921;BME280;21128;50.016;20.002;2023-01-29T04:59:50;99669.27;;;-1.93;100.00
34921;BME280;21128;50.016;20.002;2023-01-29T05:02:20;99671.83;;;-1.92;100.00
34921;BME280;21128;50.016;20.002;2023-01-29T05:04:50;99667.58;;;-1.93;100.00
34921;BME280;21128;50.016;20.002;2023-01-29T05:07:18;99663.33;;;-1.95;100.00
34921;BME280;21128;50.016;20.002;2023-01-29T05:09:47;99672.79;;;-1.96;100.00
34921;BME280;21128;50.016;20.002;2023-01-29T05:12:16;99661.70;;;-1.98;100.00
34921;BME280;21128;50.016;20.002;2023-01-29T05:14:45;99661.70;;;-1.98;100.00
34921;BME280;21128;50.016;20.002;2023-01-29T05:17:16;99657.39;;;-1.97;100.00
34921;BME280;21128;50.016;20.002;2023-01-29T05:19:45;99654.81;;;-1.97;100.00
34921;BME280;21128;50.016;20.002;2023-01-29T05:22:15;99663.43;;;-1.99;100.00
34921;BME280;21128;50.016;20.002;2023-01-29T05:24:43;99666.00;;;-1.99;100.00
34921;BME280;21128;50.016;20.002;2023-01-29T05:27:17;99668.58;;;-1.99;100.00
34921;BME280;21128;50.016;20.002;2023-01-29T05:30:03;99671.20;;;-2.00;100.00
34921;BME280;21128;50.016;20.002;2023-01-29T05:32:31;99670.42;;;-2.04;100.00
34921;BME280;21128;50.016;20.002;2023-01-29T05:34:58;99670.53;;;-2.07;100.00
34921;BME280;21128;50.016;20.002;2023-01-29T05:37:25;99679.14;;;-2.08;100.00
34921;BME280;21128;50.016;20.002;2023-01-29T05:39:52;99687.83;;;-2.12;100.00
34921;BME280;21128;50.016;20.002;2023-01-29T05:42:19;99686.30;;;-2.19;100.00
34921;BME280;21128;50.016;20.002;2023-01-29T05:44:46;99685.55;;;-2.22;100.00
34921;BME280;21128;50.016;20.002;2023-01-29T05:47:13;99693.38;;;-2.27;100.00
34921;BME280;21128;50.016;20.002;2023-01-29T05:49:40;99685.75;;;-2.30;100.00
34921;BME280;21128;50.016;20.002;2023-01-29T05:52:07;99698.67;;;-2.32;100.00
34921;BME280;21128;50.016;20.002;2023-01-29T05:54:34;99696.20;;;-2.36;100.00
34921;BME280;21128;50.016;20.002;2023-01-29T05:57:01;99704.86;;;-2.39;100.00
34921;BME280;21128;50.016;20.002;2023-01-29T05:59:28;99707.48;;;-2.40;100.00
34921;BME280;21128;50.016;20.002;2023-01-29T06:01:56;99704.91;;;-2.40;100.00
34921;BME280;21128;50.016;20.002;2023-01-29T06:04:24;99712.67;;;-2.42;100.00
34921;BME280;21128;50.016;20.002;2023-01-29T06:06:50;99713.58;;;-2.44;100.00
34921;BME280;21128;50.016;20.002;2023-01-29T06:09:17;99718.81;;;-2.47;100.00
34921;BME280;21128;50.016;20.002;2023-01-29T06:11:44;99707.72;;;-2.49;100.00
34921;BME280;21128;50.016;20.002;2023-01-29T06:14:11;99721.48;;;-2.50;100.00
34921;BME280;21128;50.016;20.002;2023-01-29T06:16:38;99728.37;;;-2.52;100.00
34921;BME280;21128;50.016;20.002;2023-01-29T06:19:05;99720.78;;;-2.57;100.00
34921;BME280;21128;50.016;20.002;2023-01-29T06:21:32;99728.55;;;-2.59;100.00
34921;BME280;21128;50.016;20.002;2023-01-29T06:24:00;99715.73;;;-2.62;100.00
34921;BME280;21128;50.016;20.002;2023-01-29T06:26:27;99731.17;;;-2.62;100.00
34921;BME280;21128;50.016;20.002;2023-01-29T06:28:54;99737.20;;;-2.63;100.00
34921;BME280;21128;50.016;20.002;2023-01-29T06:31:21;99741.47;;;-2.62;100.00
34921;BME280;21128;50.016;20.002;2023-01-29T06:33:48;99731.27;;;-2.65;100.00
34921;BME280;21128;50.016;20.002;2023-01-29T06:36:15;99730.46;;;-2.67;100.00
34921;BME280;21128;50.016;20.002;2023-01-29T06:38:41;99736.50;;;-2.68;100.00
34921;BME280;21128;50.016;20.002;2023-01-29T06:41:15;99729.66;;;-2.69;100.00
34921;BME280;21128;50.016;20.002;2023-01-29T06:43:43;99747.67;;;-2.69;100.00
34921;BME280;21128;50.016;20.002;2023-01-29T06:46:11;99746.84;;;-2.71;100.00
34921;BME280;21128;50.016;20.002;2023-01-29T06:48:38;99739.97;;;-2.70;100.00
34921;BME280;21128;50.016;20.002;2023-01-29T06:51:07;99744.27;;;-2.71;100.00
34921;BME280;21128;50.016;20.002;2023-01-29T06:53:36;99753.75;;;-2.73;100.00
34921;BME280;21128;50.016;20.002;2023-01-29T06:56:04;99749.50;;;-2.74;100.00
34921;BME280;21128;50.016;20.002;2023-01-29T06:58:31;99751.27;;;-2.76;100.00
34921;BME280;21128;50.016;20.002;2023-01-29T07:01:16;99749.58;;;-2.77;100.00
34921;BME280;21128;50.016;20.002;2023-01-29T07:03:43;99747.02;;;-2.77;100.00
34921;BME280;21128;50.016;20.002;2023-01-29T07:06:10;99744.44;;;-2.77;100.00
34921;BME280;21128;50.016;20.002;2023-01-29T07:08:38;99743.55;;;-2.76;100.00
34921;BME280;21128;50.016;20.002;2023-01-29T07:11:07;99746.04;;;-2.73;100.00
34921;BME280;21128;50.016;20.002;2023-01-29T07:13:34;99753.67;;;-2.70;100.00
34921;BME280;21128;50.016;20.002;2023-01-29T07:16:02;99757.08;;;-2.68;100.00
34921;BME280;21128;50.016;20.002;2023-01-29T07:18:31;99762.22;;;-2.68;100.00
34921;BME280;21128;50.016;20.002;2023-01-29T07:21:03;99754.50;;;-2.68;100.00
34921;BME280;21128;50.016;20.002;2023-01-29T07:23:40;99766.48;;;-2.67;100.00
34921;BME280;21128;50.016;20.002;2023-01-29T07:26:10;99759.65;;;-2.68;100.00
34921;BME280;21128;50.016;20.002;2023-01-29T07:28:39;99759.66;;;-2.69;100.00
34921;BME280;21128;50.016;20.002;2023-01-29T07:31:16;99747.67;;;-2.69;100.00
34921;BME280;21128;50.016;20.002;2023-01-29T07:33:46;99749.36;;;-2.68;100.00
34921;BME280;21128;50.016;20.002;2023-01-29T07:36:14;99752.73;;;-2.66;100.00
34921;BME280;21128;50.016;20.002;2023-01-29T07:38:41;99755.30;;;-2.66;100.00
34921;BME280;21128;50.016;20.002;2023-01-29T07:41:10;99755.27;;;-2.64;100.00
34921;BME280;21128;50.016;20.002;2023-01-29T07:43:37;99768.12;;;-2.64;100.00
34921;BME280;21128;50.016;20.002;2023-01-29T07:46:04;99766.48;;;-2.67;100.00
34921;BME280;21128;50.016;20.002;2023-01-29T07:48:31;99783.69;;;-2.69;100.00
34921;BME280;21128;50.016;20.002;2023-01-29T07:50:59;99780.23;;;-2.68;100.00
34921;BME280;21128;50.016;20.002;2023-01-29T07:53:26;99781.92;;;-2.67;100.00
34921;BME280;21128;50.016;20.002;2023-01-29T07:56:01;99782.77;;;-2.66;100.00
34921;BME280;21128;50.016;20.002;2023-01-29T07:58:33;99785.34;;;-2.66;100.00
34921;BME280;21128;50.016;20.002;2023-01-29T08:01:04;99793.02;;;-2.65;100.00
34921;BME280;21128;50.016;20.002;2023-01-29T08:03:32;99796.47;;;-2.66;100.00
34921;BME280;21128;50.016;20.002;2023-01-29T08:05:59;99797.36;;;-2.67;100.00
34921;BME280;21128;50.016;20.002;2023-01-29T08:08:26;99794.83;;;-2.70;100.00
34921;BME280;21128;50.016;20.002;2023-01-29T08:10:53;99801.66;;;-2.67;100.00
34921;BME280;21128;50.016;20.002;2023-01-29T08:13:21;99796.47;;;-2.66;100.00
34921;BME280;21128;50.016;20.002;2023-01-29T08:15:48;99807.52;;;-2.61;100.00
34921;BME280;21128;50.016;20.002;2023-01-29T08:18:14;99800.51;;;-2.56;100.00
34921;BME280;21128;50.016;20.002;2023-01-29T08:20:42;99808.14;;;-2.52;100.00
34921;BME280;21128;50.016;20.002;2023-01-29T08:23:14;99810.44;;;-2.40;100.00
34921;BME280;21128;50.016;20.002;2023-01-29T08:25:42;99819.09;;;-2.09;100.00
34921;BME280;21128;50.016;20.002;2023-01-29T08:28:10;99829.61;;;-1.53;100.00
34921;BME280;21128;50.016;20.002;2023-01-29T08:30:38;99820.97;;;-1.21;100.00
34921;BME280;21128;50.016;20.002;2023-01-29T08:33:05;99819.06;;;-1.14;100.00
34921;BME280;21128;50.016;20.002;2023-01-29T08:35:32;99829.27;;;-1.11;100.00
34921;BME280;21128;50.016;20.002;2023-01-29T08:38:01;99832.30;;;-0.97;100.00
34921;BME280;21128;50.016;20.002;2023-01-29T08:40:31;99840.04;;;-0.97;99.67
34921;BME280;21128;50.016;20.002;2023-01-29T08:43:04;99840.44;;;-1.10;100.00
34921;BME280;21128;50.016;20.002;2023-01-29T08:45:36;99836.44;;;-1.21;99.63
34921;BME280;21128;50.016;20.002;2023-01-29T08:48:10;99833.86;;;-1.21;100.00
34921;BME280;21128;50.016;20.002;2023-01-29T08:50:40;99829.55;;;-1.20;99.54
34921;BME280;21128;50.016;20.002;2023-01-29T08:53:18;99819.01;;;-1.12;100.00
34921;BME280;21128;50.016;20.002;2023-01-29T08:56:00;99811.61;;;-0.95;100.00
34921;BME280;21128;50.016;20.002;2023-01-29T08:58:27;99811.94;;;-0.78;100.00
34921;BME280;21128;50.016;20.002;2023-01-29T09:00:54;99819.27;;;-0.38;100.00
34921;BME280;21128;50.016;20.002;2023-01-29T09:03:21;99815.30;;;-0.21;100.00
34921;BME280;21128;50.016;20.002;2023-01-29T09:05:49;99807.88;;;-0.06;100.00
34921;BME280;21128;50.016;20.002;2023-01-29T09:08:16;99806.92;;;-0.03;97.54
34921;BME280;21128;50.016;20.002;2023-01-29T09:10:43;99804.48;;;-0.33;96.08
34921;BME280;21128;50.016;20.002;2023-01-29T09:13:10;99799.76;;;-0.46;98.02
34921;BME280;21128;50.016;20.002;2023-01-29T09:15:38;99793.84;;;-0.23;98.10
34921;BME280;21128;50.016;20.002;2023-01-29T09:18:05;99795.30;;;0.34;97.83
34921;BME280;21128;50.016;20.002;2023-01-29T09:20:32;99795.09;;;0.87;98.55
34921;BME280;21128;50.016;20.002;2023-01-29T09:23:05;99795.25;;;0.82;97.33
34921;BME280;21128;50.016;20.002;2023-01-29T09:25:32;99817.19;;;0.95;96.94
34921;BME280;21128;50.016;20.002;2023-01-29T09:28:00;99809.87;;;0.83;96.19
34921;BME280;21128;50.016;20.002;2023-01-29T09:30:27;99809.65;;;0.89;94.23
34921;BME280;21128;50.016;20.002;2023-01-29T09:32:54;99794.97;;;0.90;94.92
34921;BME280;21128;50.016;20.002;2023-01-29T09:35:22;99794.22;;;1.09;93.33
34921;BME280;21128;50.016;20.002;2023-01-29T09:37:50;99782.09;;;0.88;94.35
34921;BME280;21128;50.016;20.002;2023-01-29T09:46:03;99775.27;;;-0.35;91.66
34921;BME280;21128;50.016;20.002;2023-01-29T09:48:32;99768.67;;;-0.70;93.27
34921;BME280;21128;50.016;20.002;2023-01-29T09:51:05;99768.75;;;-0.99;93.98
34921;BME280;21128;50.016;20.002;2023-01-29T09:53:42;99763.54;;;-1.26;94.54
34921;BME280;21128;50.016;20.002;2023-01-29T09:56:19;99752.84;;;-1.43;94.91
34921;BME280;21128;50.016;20.002;2023-01-29T09:58:47;99755.13;;;-1.62;96.05
34921;BME280;21128;50.016;20.002;2023-01-29T10:01:41;99740.02;;;-1.74;96.88
34921;BME280;21128;50.016;20.002;2023-01-29T10:04:24;99750.39;;;-1.77;97.07
34921;BME280;21128;50.016;20.002;2023-01-29T10:07:08;99746.28;;;-1.83;97.97
34921;BME280;21128;50.016;20.002;2023-01-29T10:13:00;99744.61;;;-1.85;99.08
34921;BME280;21128;50.016;20.002;2023-01-29T10:18:31;99736.02;;;-1.84;98.54
34921;BME280;21128;50.016;20.002;2023-01-29T10:21:14;99737.61;;;-1.80;99.19
34921;BME280;21128;50.016;20.002;2023-01-29T10:23:49;99738.45;;;-1.80;99.74
34921;BME280;21128;50.016;20.002;2023-01-29T10:26:23;99730.98;;;-1.89;99.18
34921;BME280;21128;50.016;20.002;2023-01-29T10:28:54;99738.76;;;-1.90;99.63
34921;BME280;21128;50.016;20.002;2023-01-29T10:31:29;99732.92;;;-1.97;100.00
34921;BME280;21128;50.016;20.002;2023-01-29T10:34:05;99725.50;;;-2.08;100.00
34921;BME280;21128;50.016;20.002;2023-01-29T10:36:45;99709.27;;;-2.11;100.00
34921;BME280;21128;50.016;20.002;2023-01-29T10:39:15;99710.00;;;-2.06;100.00
34921;BME280;21128;50.016;20.002;2023-01-29T10:42:17;99707.31;;;-2.02;100.00
34921;BME280;21128;50.016;20.002;2023-01-29T10:50:38;99675.25;;;-2.22;100.00
34921;BME280;21128;50.016;20.002;2023-01-29T10:58:50;99650.93;;;-2.12;100.00
34921;BME280;21128;50.016;20.002;2023-01-29T11:01:17;99642.25;;;-2.08;100.00
34921;BME280;21128;50.016;20.002;2023-01-29T11:03:45;99639.67;;;-2.08;100.00
34921;BME280;21128;50.016;20.002;2023-01-29T11:06:20;99629.32;;;-2.07;100.00
34921;BME280;21128;50.016;20.002;2023-01-29T11:12:05;99622.55;;;-2.11;100.00
34921;BME280;21128;50.016;20.002;2023-01-29T11:14:41;99613.82;;;-2.05;100.00
34921;BME280;21128;50.016;20.002;2023-01-29T11:17:24;99605.98;;;-2.01;100.00
34921;BME280;21128;50.016;20.002;2023-01-29T11:19:53;99594.56;;;-1.92;100.00
34921;BME280;21128;50.016;20.002;2023-01-29T11:22:28;99588.36;;;-1.86;100.00
34921;BME280;21128;50.016;20.002;2023-01-29T11:25:18;99583.19;;;-1.85;100.00
34921;BME280;21128;50.016;20.002;2023-01-29T11:27:55;99578.82;;;-1.83;100.00
34921;BME280;21128;50.016;20.002;2023-01-29T11:30:29;99574.41;;;-1.79;100.00
34921;BME280;21128;50.016;20.002;2023-01-29T11:33:11;99576.63;;;-1.67;100.00
34921;BME280;21128;50.016;20.002;2023-01-29T11:35:44;99580.64;;;-1.58;100.00
34921;BME280;21128;50.016;20.002;2023-01-29T11:40:42;99578.30;;;-1.66;99.72
34921;BME280;21128;50.016;20.002;2023-01-29T11:45:49;99562.97;;;-1.71;100.00
34921;BME280;21128;50.016;20.002;2023-01-29T11:48:19;99556.84;;;-1.66;99.81
34921;BME280;21128;50.016;20.002;2023-01-29T11:50:54;99559.55;;;-1.71;99.27
34921;BME280;21128;50.016;20.002;2023-01-29T11:53:35;99548.35;;;-1.70;100.00
34921;BME280;21128;50.016;20.002;2023-01-29T11:56:15;99548.88;;;-1.59;100.00
34921;BME280;21128;50.016;20.002;2023-01-29T11:58:44;99538.16;;;-1.47;100.00
34921;BME280;21128;50.016;20.002;2023-01-29T12:01:14;99541.19;;;-1.34;100.00
34921;BME280;21128;50.016;20.002;2023-01-29T12:03:48;99532.39;;;-1.28;99.74
34921;BME280;21128;50.016;20.002;2023-01-29T12:06:35;99530.59;;;-1.26;99.32
34921;BME280;21128;50.016;20.002;2023-01-29T12:09:15;99532.50;;;-1.31;98.14
34921;BME280;21128;50.016;20.002;2023-01-29T12:11:43;99524.01;;;-1.35;97.68
34921;BME280;21128;50.016;20.002;2023-01-29T12:14:27;99519.92;;;-1.40;97.26
34921;BME280;21128;50.016;20.002;2023-01-29T12:17:12;99520.84;;;-1.43;97.32
34921;BME280;21128;50.016;20.002;2023-01-29T12:19:54;99530.28;;;-1.42;98.17
34921;BME280;21128;50.016;20.002;2023-01-29T12:22:57;99517.53;;;-1.47;96.78
34921;BME280;21128;50.016;20.002;2023-01-29T12:25:40;99524.62;;;-1.53;96.97
34921;BME280;21128;50.016;20.002;2023-01-29T12:28:23;99541.93;;;-1.57;96.68
34921;BME280;21128;50.016;20.002;2023-01-29T12:36:26;99528.34;;;-1.62;97.17
34921;BME280;21128;50.016;20.002;2023-01-29T12:38:54;99533.36;;;-1.57;97.24
34921;BME280;21128;50.016;20.002;2023-01-29T12:43:55;99534.01;;;-1.51;97.76
34921;BME280;21128;50.016;20.002;2023-01-29T12:46:41;99536.59;;;-1.51;96.92
34921;BME280;21128;50.016;20.002;2023-01-29T12:49:17;99520.30;;;-1.53;96.74
34921;BME280;21128;50.016;20.002;2023-01-29T12:51:59;99531.51;;;-1.54;97.33
34921;BME280;21128;50.016;20.002;2023-01-29T12:54:35;99519.63;;;-1.58;96.65
34921;BME280;21128;50.016;20.002;2023-01-29T12:57:15;99532.57;;;-1.59;97.23
34921;BME280;21128;50.016;20.002;2023-01-29T12:59:48;99537.86;;;-1.64;97.10
34921;BME280;21128;50.016;20.002;2023-01-29T13:02:36;99535.28;;;-1.64;97.92
34921;BME280;21128;50.016;20.002;2023-01-29T13:08:00;99517.00;;;-1.56;97.75
34921;BME280;21128;50.016;20.002;2023-01-29T13:10:31;99521.96;;;-1.50;97.92
34921;BME280;21128;50.016;20.002;2023-01-29T13:13:05;99515.15;;;-1.53;96.75
34921;BME280;21128;50.016;20.002;2023-01-29T13:15:39;99521.20;;;-1.54;95.96
34921;BME280;21128;50.016;20.002;2023-01-29T13:18:39;99511.06;;;-1.58;97.29
34921;BME280;21128;50.016;20.002;2023-01-29T13:21:38;99501.53;;;-1.56;97.12
34921;BME280;21128;50.016;20.002;2023-01-29T13:24:14;99502.23;;;-1.51;96.67
34921;BME280;21128;50.016;20.002;2023-01-29T13:26:46;99503.81;;;-1.47;96.92
34921;BME280;21128;50.016;20.002;2023-01-29T13:31:46;99497.56;;;-1.40;96.23
34921;BME280;21128;50.016;20.002;2023-01-29T13:34:32;99495.06;;;-1.43;96.52
34921;BME280;21128;50.016;20.002;2023-01-29T13:39:59;99494.20;;;-1.42;97.04
34921;BME280;21128;50.016;20.002;2023-01-29T13:42:38;99495.82;;;-1.39;97.36
34921;BME280;21128;50.016;20.002;2023-01-29T13:45:07;99503.55;;;-1.39;95.97
34921;BME280;21128;50.016;20.002;2023-01-29T13:47:38;99505.60;;;-1.49;95.45
34921;BME280;21128;50.016;20.002;2023-01-29T13:50:16;99500.58;;;-1.54;96.59
34921;BME280;21128;50.016;20.002;2023-01-29T13:52:52;99493.63;;;-1.52;96.10
34921;BME280;21128;50.016;20.002;2023-01-29T13:58:01;99492.31;;;-1.63;95.51
34921;BME280;21128;50.016;20.002;2023-01-29T14:10:36;99499.20;;;-1.64;96.62
34921;BME280;21128;50.016;20.002;2023-01-29T14:15:35;99506.34;;;-1.72;95.57
34921;BME280;21128;50.016;20.002;2023-01-29T14:18:16;99496.14;;;-1.75;96.60
34921;BME280;21128;50.016;20.002;2023-01-29T14:20:49;99508.02;;;-1.71;97.02
34921;BME280;21128;50.016;20.002;2023-01-29T14:26:39;99484.05;;;-1.73;96.72
34921;BME280;21128;50.016;20.002;2023-01-29T14:34:31;99477.56;;;-1.85;96.33
34921;BME280;21128;50.016;20.002;2023-01-29T14:37:13;99486.38;;;-1.92;96.05
34921;BME280;21128;50.016;20.002;2023-01-29T14:39:52;99483.25;;;-2.02;95.52
34921;BME280;21128;50.016;20.002;2023-01-29T14:45:30;99478.28;;;-2.08;95.67
34921;BME280;21128;50.016;20.002;2023-01-29T14:51:11;99474.86;;;-2.08;96.67
34921;BME280;21128;50.016;20.002;2023-01-29T14:54:00;99483.50;;;-2.11;96.15
34921;BME280;21128;50.016;20.002;2023-01-29T14:56:33;99484.45;;;-2.13;96.63
34921;BME280;21128;50.016;20.002;2023-01-29T14:59:13;99483.66;;;-2.15;96.42
34921;BME280;21128;50.016;20.002;2023-01-29T15:01:46;99471.81;;;-2.21;96.54
34921;BME280;21128;50.016;20.002;2023-01-29T15:04:22;99475.28;;;-2.22;96.73
34921;BME280;21128;50.016;20.002;2023-01-29T15:09:49;99467.71;;;-2.27;96.82
34921;BME280;21128;50.016;20.002;2023-01-29T15:15:24;99454.02;;;-2.29;97.05
34921;BME280;21128;50.016;20.002;2023-01-29T15:20:30;99444.84;;;-2.37;97.10
34921;BME280;21128;50.016;20.002;2023-01-29T15:22:59;99460.39;;;-2.40;97.22
34921;BME280;21128;50.016;20.002;2023-01-29T15:25:33;99455.35;;;-2.43;97.39
34921;BME280;21128;50.016;20.002;2023-01-29T15:28:03;99451.95;;;-2.45;97.27
34921;BME280;21128;50.016;20.002;2023-01-29T15:30:34;99442.55;;;-2.46;97.41
34921;BME280;21128;50.016;20.002;2023-01-29T15:33:02;99434.89;;;-2.48;97.34
34921;BME280;21128;50.016;20.002;2023-01-29T15:35:34;99434.94;;;-2.49;97.51
34921;BME280;21128;50.016;20.002;2023-01-29T15:38:16;99435.84;;;-2.50;97.66